createdAt,value
2023-05-09T00:00:57.742Z,71.20
2023-05-09T00:06:01.196Z,71.86
2023-05-09T00:11:04.351Z,71.88
2023-05-09T00:16:08.297Z,71.84
2023-05-09T00:21:11.640Z,71.88
2023-05-09T00:26:14.482Z,72.07
2023-05-09T00:31:17.210Z,72.23
2023-05-09T00:36:20.097Z,72.25
2023-05-09T00:41:22.900Z,71.78
2023-05-09T00:46:25.770Z,72.13
2023-05-09T00:51:28.776Z,72.65
2023-05-09T00:56:31.948Z,72.57
2023-05-09T01:01:34.875Z,72.89
2023-05-09T01:06:58.077Z,72.95
2023-05-09T01:12:09.986Z,73.08
2023-05-09T01:17:39.557Z,73.15
2023-05-09T01:22:49.994Z,73.09
2023-05-09T01:28:12.420Z,72.92
2023-05-09T01:33:18.292Z,72.92
2023-05-09T01:38:22.303Z,72.51
2023-05-09T01:43:27.546Z,72.85
2023-05-09T01:48:30.544Z,72.96
2023-05-09T01:53:33.511Z,73.61
2023-05-09T01:58:36.262Z,73.88
2023-05-09T02:03:39.108Z,73.98
2023-05-09T02:08:41.835Z,73.89
2023-05-09T02:13:44.894Z,74.20
2023-05-09T02:18:47.948Z,74.28
2023-05-09T02:23:50.694Z,74.56
2023-05-09T02:28:53.645Z,74.82
2023-05-09T02:33:56.844Z,74.78
2023-05-09T02:39:01.216Z,74.95
2023-05-09T02:44:05.366Z,75.06
2023-05-09T02:49:10.121Z,75.02
2023-05-09T02:54:13.374Z,75.15
2023-05-09T02:59:18.444Z,75.31
2023-05-09T03:04:23.115Z,75.43
2023-05-09T03:09:26.307Z,75.53
2023-05-09T03:14:29.110Z,75.28
2023-05-09T03:19:32.698Z,75.13
2023-05-09T03:24:35.508Z,75.14
2023-05-09T03:29:38.572Z,75.06
2023-05-09T03:34:41.754Z,75.37
2023-05-09T03:39:44.526Z,75.48
2023-05-09T03:44:47.707Z,76.12
2023-05-09T03:49:50.826Z,76.88
2023-05-09T03:54:53.842Z,76.82
2023-05-09T03:59:56.653Z,76.84
2023-05-09T04:05:01.708Z,76.82
2023-05-09T04:10:06.447Z,76.89
2023-05-09T04:15:11.184Z,77.00
2023-05-09T04:20:14.084Z,77.18
2023-05-09T04:34:05.422Z,77.18
2023-05-09T04:39:12.960Z,76.80
2023-05-09T05:21:59.420Z,74.39
2023-05-09T05:27:03.281Z,74.15
2023-05-09T05:32:07.693Z,73.54
2023-05-09T05:37:10.477Z,72.10
2023-05-09T05:43:53.528Z,70.82
2023-05-09T05:48:59.078Z,69.74
2023-05-09T06:01:24.305Z,67.87
2023-05-09T06:06:27.831Z,67.03
2023-05-09T06:11:30.847Z,66.15
2023-05-09T06:16:39.992Z,65.26
2023-05-09T06:21:42.812Z,63.98
2023-05-09T06:26:46.087Z,62.70
2023-05-09T06:31:49.222Z,61.55
2023-05-09T06:36:52.533Z,59.86
2023-05-09T06:41:55.322Z,57.70
2023-05-09T06:46:58.406Z,56.51
2023-05-09T06:52:02.753Z,56.52
2023-05-09T06:57:05.683Z,54.35
2023-05-09T07:02:08.870Z,52.19
2023-05-09T07:07:11.673Z,50.35
2023-05-09T07:12:14.385Z,49.64
2023-05-09T07:17:23.704Z,48.03
2023-05-09T07:22:28.785Z,47.07
2023-05-09T07:27:33.554Z,45.97
2023-05-09T07:32:36.479Z,42.52
2023-05-09T07:37:39.244Z,42.18
2023-05-09T07:42:49.495Z,39.90
2023-05-09T07:47:52.346Z,40.25
2023-05-09T07:52:55.785Z,39.47
2023-05-09T07:57:58.520Z,39.82
2023-05-09T08:03:01.554Z,38.16
2023-05-09T08:08:04.886Z,37.00
2023-05-09T08:13:07.717Z,37.41
2023-05-09T08:18:10.789Z,36.22
2023-05-09T08:23:13.870Z,36.41
2023-05-09T08:28:16.810Z,35.21
2023-05-09T08:33:19.537Z,34.77
2023-05-09T08:38:22.531Z,35.56
2023-05-09T08:43:46.076Z,34.67
2023-05-09T08:48:49.140Z,34.89
2023-05-09T08:53:52.037Z,34.47
2023-05-09T08:58:54.784Z,34.24
2023-05-09T09:03:57.641Z,33.22
2023-05-09T09:09:00.599Z,32.74
2023-05-09T09:14:18.592Z,32.67
2023-05-09T09:19:21.394Z,31.80
2023-05-09T09:24:24.664Z,31.77
2023-05-09T09:29:28.727Z,30.93
2023-05-09T09:34:31.829Z,30.35
2023-05-09T09:39:34.607Z,30.35
2023-05-09T09:44:37.355Z,29.51
2023-05-09T09:49:46.101Z,28.63
2023-05-09T09:54:48.996Z,28.49
2023-05-09T09:59:59.673Z,28.49
2023-05-09T10:05:09.307Z,26.39
2023-05-09T10:10:12.116Z,26.52
2023-05-09T10:15:18.728Z,25.08
2023-05-09T10:20:22.276Z,23.92
2023-05-09T10:25:40.666Z,24.40
2023-05-09T10:30:55.521Z,22.87
2023-05-09T12:19:51.112Z,10.97
2023-05-09T12:24:54.877Z,10.76
2023-05-09T12:29:57.746Z,9.86
2023-05-09T12:35:00.573Z,9.63
2023-05-09T12:40:13.044Z,9.89
2023-05-09T12:45:16.284Z,9.40
2023-05-09T12:50:19.525Z,9.40
2023-05-09T12:55:22.245Z,9.39
2023-05-09T13:00:25.498Z,9.13
2023-05-09T13:05:28.305Z,8.73
2023-05-09T13:10:31.052Z,8.78
2023-05-09T13:15:34.006Z,8.63
2023-05-09T13:20:36.842Z,8.21
2023-05-09T13:25:39.542Z,8.20
2023-05-09T13:30:42.338Z,8.57
2023-05-09T13:35:47.075Z,8.55
2023-05-09T13:40:51.639Z,8.20
2023-05-09T13:45:54.490Z,7.87
2023-05-09T13:50:59.592Z,7.43
2023-05-09T13:56:02.450Z,7.46
2023-05-09T14:01:05.455Z,7.81
2023-05-09T14:06:10.515Z,7.75
2023-05-09T14:11:13.730Z,7.51
2023-05-09T14:16:16.867Z,7.50
2023-05-09T14:21:19.684Z,7.43
2023-05-09T14:26:22.497Z,7.10
2023-05-09T14:31:25.413Z,7.71
2023-05-09T14:36:28.873Z,8.31
2023-05-09T14:41:31.819Z,8.68
2023-05-09T14:46:34.745Z,8.95
2023-05-09T14:51:37.744Z,11.13
2023-05-09T14:56:40.573Z,13.04
2023-05-09T15:01:43.624Z,14.23
2023-05-09T15:06:46.426Z,14.58
2023-05-09T15:11:49.498Z,15.58
2023-05-09T15:16:53.239Z,16.25
2023-05-09T15:21:56.038Z,17.46
2023-05-09T15:26:58.859Z,17.65
2023-05-09T15:32:01.567Z,18.41
2023-05-09T15:37:04.665Z,18.71
2023-05-09T15:42:08.920Z,18.78
2023-05-09T15:47:11.798Z,19.21
2023-05-09T15:52:14.909Z,19.39
2023-05-09T15:57:18.215Z,19.54
2023-05-09T16:02:22.277Z,20.35
2023-05-09T16:07:26.179Z,20.52
2023-05-09T16:12:29.337Z,21.11
2023-05-09T16:17:32.227Z,21.67
2023-05-09T16:22:34.998Z,21.66
2023-05-09T16:27:37.833Z,22.36
2023-05-09T16:32:40.696Z,22.31
2023-05-09T16:37:44.177Z,22.47
2023-05-09T16:42:47.204Z,22.39
2023-05-09T16:47:51.140Z,23.24
2023-05-09T16:52:54.273Z,23.76
2023-05-09T16:57:57.019Z,24.21
2023-05-09T17:02:59.861Z,24.77
2023-05-09T17:08:02.674Z,24.92
2023-05-09T17:13:08.583Z,25.41
2023-05-09T17:18:17.062Z,25.61
2023-05-09T17:23:22.238Z,26.62
2023-05-09T17:28:25.347Z,26.76
2023-05-09T17:33:28.219Z,26.78
2023-05-09T17:38:31.033Z,27.72
2023-05-09T17:43:34.309Z,27.69
2023-05-09T17:48:37.148Z,28.59
2023-05-09T17:53:39.987Z,29.23
2023-05-09T17:58:42.872Z,29.62
2023-05-09T18:03:46.315Z,30.28
2023-05-09T18:08:49.097Z,30.93
2023-05-09T18:13:51.897Z,31.92
2023-05-09T18:18:54.719Z,32.28
2023-05-09T18:23:57.729Z,32.69
2023-05-09T18:29:01.419Z,33.44
2023-05-09T18:34:05.655Z,33.94
2023-05-09T18:39:09.007Z,34.51
2023-05-09T18:44:11.783Z,34.92
2023-05-09T18:49:15.560Z,34.92
2023-05-09T18:54:18.376Z,35.58
2023-05-09T18:59:21.962Z,35.91
2023-05-09T19:04:25.334Z,36.44
2023-05-09T19:09:29.174Z,37.26
2023-05-09T19:14:32.198Z,37.66
2023-05-09T19:19:35.033Z,38.02
2023-05-09T19:24:37.902Z,38.19
2023-05-09T19:29:40.760Z,38.33
2023-05-09T19:34:43.676Z,38.48
2023-05-09T19:39:46.737Z,38.88
2023-05-09T19:44:52.308Z,39.16
2023-05-09T19:49:55.026Z,39.24
2023-05-09T19:54:57.843Z,39.28
2023-05-09T20:00:00.686Z,39.78
2023-05-09T20:05:03.799Z,40.15
2023-05-09T20:10:07.089Z,40.48
2023-05-09T20:15:10.309Z,41.42
2023-05-09T20:20:13.686Z,42.11
2023-05-09T20:25:16.827Z,41.79
2023-05-09T20:30:19.737Z,42.47
2023-05-09T20:35:23.077Z,42.44
2023-05-09T20:40:25.869Z,42.80
2023-05-09T20:45:28.740Z,43.43
2023-05-09T20:50:31.648Z,43.38
2023-05-09T20:55:34.764Z,43.80
2023-05-09T21:00:37.590Z,44.07
2023-05-09T21:05:40.846Z,44.67
2023-05-09T21:10:43.703Z,44.73
2023-05-09T21:15:50.346Z,44.36
2023-05-09T21:20:53.285Z,45.23
2023-05-09T21:25:56.106Z,45.22
2023-05-09T21:31:01.467Z,45.62
2023-05-09T21:36:04.625Z,45.78
2023-05-09T21:41:07.400Z,46.36
2023-05-09T21:46:10.418Z,46.33
2023-05-09T21:51:13.228Z,46.47
2023-05-09T21:56:15.923Z,46.81
2023-05-09T22:01:19.135Z,46.61
2023-05-09T22:06:22.075Z,47.08
2023-05-09T22:11:24.805Z,48.01
2023-05-09T22:16:27.706Z,48.04
2023-05-09T22:21:31.429Z,48.52
2023-05-09T22:26:34.241Z,48.71
2023-05-09T22:31:36.997Z,49.30
2023-05-09T22:36:39.880Z,49.71
2023-05-09T22:41:42.683Z,49.37
2023-05-09T22:46:45.385Z,49.47
2023-05-09T22:51:48.233Z,50.70
2023-05-09T22:56:51.143Z,51.27
2023-05-09T23:01:53.972Z,51.09
2023-05-09T23:06:56.753Z,51.41
2023-05-09T23:11:59.597Z,51.00
2023-05-09T23:17:02.461Z,51.94
2023-05-09T23:22:05.436Z,52.01
2023-05-09T23:27:08.343Z,53.01
2023-05-09T23:32:11.066Z,52.79
2023-05-09T23:37:13.844Z,53.51
2023-05-09T23:42:16.656Z,54.00
2023-05-09T23:47:19.361Z,53.97
2023-05-09T23:52:22.051Z,53.79
2023-05-09T23:57:24.897Z,54.43
